Ismail Baba3 — TCA3905 — position and weather

sailwx.info

Track history (hours):
 
Tides and Currents Weather Stations Pressure Air Temp Water Temp Dewpoint Dewpoint Depression Visibility Wind Speed Wind Dir Waves Ship Positions

Ismail Baba3

Last reported at 2018-Apr-13 08:17 UTC. Time now 2018-Aug-14 23:44 UTC.
Position N 36°48' E 031°04'.
Warning: this ship's position is months out of date.

Length 17 m.

Type: Pleasure craft. MMSI: 271073146.

Date/timePositionNaut miles runAvg speedWind from/ knotsBaromVisibWave heightAir tempDewpointWater temp
2018-Apr-13 08:17N 36°48' E 031°04'  
2018-Apr-09 03:43N 36°47' E 030°51'0 0.6
2018-Apr-09 03:20N 36°47' E 030°51'3 5.6
2018-Apr-09 02:47N 36°48' E 030°47'2 7.0
2018-Apr-09 02:30N 36°48' E 030°44'4 7.2
2018-Apr-09 02:00N 36°48' E 030°40'4 7.2
2018-Apr-09 01:30N 36°48' E 030°36'1 1.4
2018-Apr-09 00:59N 36°48' E 030°35'0 0.0
2018-Apr-09 00:29N 36°48' E 030°35'0 0.0
2018-Apr-08 23:59N 36°48' E 030°35'0 0.0
2018-Apr-08 23:29N 36°48' E 030°35'0 0.0
2018-Apr-08 22:59N 36°48' E 030°35'0 0.0
2018-Apr-08 22:29N 36°48' E 030°35'0 0.0
2018-Apr-08 21:59N 36°48' E 030°35'0 0.0
2018-Apr-08 21:29N 36°48' E 030°35'0 0.0
2018-Apr-08 20:59N 36°48' E 030°35'0 0.6
2018-Apr-08 20:30N 36°48' E 030°35'4 7.4
2018-Apr-08 20:00N 36°48' E 030°40'4 7.8
2018-Apr-08 19:30N 36°48' E 030°44'4 8.2
2018-Apr-08 18:59N 36°47' E 030°50'1 2.3
2018-Apr-08 18:30N 36°47' E 030°51'1 1.5
2018-Apr-08 17:50N 36°48' E 030°51'1 0.0
2018-Apr-07 03:40N 36°49' E 030°50'2 2.7
2018-Apr-07 03:00N 36°49' E 030°47'2 2.7
2018-Apr-07 02:16N 36°49' E 030°45'2 7.0
2018-Apr-07 01:57N 36°49' E 030°42'3 7.4
2018-Apr-07 01:30N 36°48' E 030°38'3 5.4
2018-Apr-07 00:59N 36°48' E 030°35'0 0.0
2018-Apr-07 00:29N 36°48' E 030°35'0 0.0
2018-Apr-06 23:59N 36°48' E 030°35'0 0.0
2018-Apr-06 23:29N 36°48' E 030°35'0 0.0
2018-Apr-06 22:59N 36°48' E 030°35'0 0.0
2018-Apr-06 22:17N 36°48' E 030°35'0 0.0
2018-Apr-06 21:02N 36°48' E 030°35'0 0.0
2018-Apr-06 20:32N 36°48' E 030°35'0 0.1
2018-Apr-06 20:29N 36°48' E 030°35'0 0.0
2018-Apr-06 19:56N 36°48' E 030°35'0 0.0
2018-Apr-06 19:26N 36°48' E 030°35'0 0.0
2018-Apr-06 18:59N 36°48' E 030°35'4 6.4
2018-Apr-06 18:25N 36°48' E 030°39'3 7.1
2018-Apr-06 17:56N 36°47' E 030°43'3 7.0
2018-Apr-06 17:30N 36°46' E 030°47'2 4.5
2018-Apr-06 17:00N 36°46' E 030°50'1 1.6
2018-Apr-06 16:20N 36°46' E 030°51'1 2.5
2018-Apr-06 15:51N 36°46' E 030°53'1 2.5
2018-Apr-06 15:29N 36°46' E 030°54'1 2.5
2018-Apr-06 14:59N 36°46' E 030°55'1 2.5
2018-Apr-06 14:29N 36°46' E 030°57'1 2.5
2018-Apr-06 14:00N 36°46' E 030°58'2 2.5
2018-Apr-06 13:17N 36°46' E 031°01'10 1.9
2018-Apr-06 08:10N 36°49' E 030°49'1 2.7
2018-Apr-06 07:59N 36°49' E 030°50'1 2.7
2018-Apr-06 07:28N 36°48' E 030°51'1 2.7
2018-Apr-06 07:00N 36°48' E 030°53'7 0.6
2018-Apr-05 18:07N 36°48' E 031°02'4 2.2
2018-Apr-05 16:08N 36°48' E 030°57'0 2.6
2018-Apr-05 16:00N 36°48' E 030°56'1 2.6
2018-Apr-05 15:30N 36°48' E 030°54'1 2.6
2018-Apr-05 15:00N 36°48' E 030°53'1 2.7
2018-Apr-05 14:30N 36°48' E 030°51'1 2.6
2018-Apr-05 13:59N 36°49' E 030°50'1 2.4
2018-Apr-05 13:30N 36°49' E 030°48'1 1.6
2018-Apr-05 13:00N 36°49' E 030°49'1 2.5
2018-Apr-05 12:30N 36°48' E 030°51'1 2.6
2018-Apr-05 12:00N 36°48' E 030°52'1 2.5
2018-Apr-05 11:30N 36°48' E 030°54'1 2.6
2018-Apr-05 11:00N 36°48' E 030°55'1 2.5
2018-Apr-05 10:30N 36°48' E 030°57'1 2.6
2018-Apr-05 10:00N 36°48' E 030°59'1 2.6
2018-Apr-05 09:28N 36°47' E 031°00'6 3.1
2018-Apr-05 07:27N 36°49' E 030°52'1 1.6
2018-Apr-05 07:00N 36°48' E 030°53'7 1.0
2018-Apr-05 00:10N 36°49' E 031°02'10 2.0
2018-Apr-04 19:18N 36°49' E 030°50'1 2.9
2018-Apr-04 18:53N 36°48' E 030°48'1 1.5
2018-Apr-04 18:30N 36°49' E 030°49'1 2.5
2018-Apr-04 18:00N 36°49' E 030°50'1 2.6
2018-Apr-04 17:30N 36°49' E 030°52'1 2.6
2018-Apr-04 17:00N 36°49' E 030°54'2 2.6
2018-Apr-04 16:25N 36°49' E 030°55'1 2.6
2018-Apr-04 15:59N 36°49' E 030°57'1 2.6
2018-Apr-04 15:28N 36°49' E 030°59'1 2.6
2018-Apr-04 15:00N 36°49' E 031°00'2 1.2
2018-Apr-04 13:30N 36°48' E 031°02'1 2.2
2018-Apr-04 13:00N 36°48' E 031°03'1 2.6
2018-Apr-04 12:29N 36°48' E 031°05'1 2.7
2018-Apr-04 12:00N 36°47' E 031°07'14 1.0
2018-Apr-03 22:08N 36°49' E 030°50'1 4.0
2018-Apr-03 21:58N 36°49' E 030°51'1 1.6
2018-Apr-03 21:28N 36°49' E 030°51'1 2.6
2018-Apr-03 21:00N 36°49' E 030°53'  
Track history (hours):
 
Tides and Currents Weather Stations Pressure Air Temp Water Temp Dewpoint Dewpoint Depression Visibility Wind Speed Wind Dir Waves Ship Positions

Ismail Baba3

Last reported at 2018-Apr-13 08:17 UTC. Time now 2018-Aug-14 23:44 UTC.
Position N 36°48' E 031°04'.
Warning: this ship's position is months out of date.

Length 17 m.

Type: Pleasure craft. MMSI: 271073146.

Date/timePositionNaut miles runAvg speedWind from/ knotsBaromVisibWave heightAir tempDewpointWater temp
2018-Apr-13 08:17N 36°48' E 031°04'  
2018-Apr-09 03:43N 36°47' E 030°51'0 0.6
2018-Apr-09 03:20N 36°47' E 030°51'3 5.6
2018-Apr-09 02:47N 36°48' E 030°47'2 7.0
2018-Apr-09 02:30N 36°48' E 030°44'4 7.2
2018-Apr-09 02:00N 36°48' E 030°40'4 7.2
2018-Apr-09 01:30N 36°48' E 030°36'1 1.4
2018-Apr-09 00:59N 36°48' E 030°35'0 0.0
2018-Apr-09 00:29N 36°48' E 030°35'0 0.0
2018-Apr-08 23:59N 36°48' E 030°35'0 0.0
2018-Apr-08 23:29N 36°48' E 030°35'0 0.0
2018-Apr-08 22:59N 36°48' E 030°35'0 0.0
2018-Apr-08 22:29N 36°48' E 030°35'0 0.0
2018-Apr-08 21:59N 36°48' E 030°35'0 0.0
2018-Apr-08 21:29N 36°48' E 030°35'0 0.0
2018-Apr-08 20:59N 36°48' E 030°35'0 0.6
2018-Apr-08 20:30N 36°48' E 030°35'4 7.4
2018-Apr-08 20:00N 36°48' E 030°40'4 7.8
2018-Apr-08 19:30N 36°48' E 030°44'4 8.2
2018-Apr-08 18:59N 36°47' E 030°50'1 2.3
2018-Apr-08 18:30N 36°47' E 030°51'1 1.5
2018-Apr-08 17:50N 36°48' E 030°51'1 0.0
2018-Apr-07 03:40N 36°49' E 030°50'2 2.7
2018-Apr-07 03:00N 36°49' E 030°47'2 2.7
2018-Apr-07 02:16N 36°49' E 030°45'2 7.0
2018-Apr-07 01:57N 36°49' E 030°42'3 7.4
2018-Apr-07 01:30N 36°48' E 030°38'3 5.4
2018-Apr-07 00:59N 36°48' E 030°35'0 0.0
2018-Apr-07 00:29N 36°48' E 030°35'0 0.0
2018-Apr-06 23:59N 36°48' E 030°35'0 0.0
2018-Apr-06 23:29N 36°48' E 030°35'0 0.0
2018-Apr-06 22:59N 36°48' E 030°35'0 0.0
2018-Apr-06 22:17N 36°48' E 030°35'0 0.0
2018-Apr-06 21:02N 36°48' E 030°35'0 0.0
2018-Apr-06 20:32N 36°48' E 030°35'0 0.1
2018-Apr-06 20:29N 36°48' E 030°35'0 0.0
2018-Apr-06 19:56N 36°48' E 030°35'0 0.0
2018-Apr-06 19:26N 36°48' E 030°35'0 0.0
2018-Apr-06 18:59N 36°48' E 030°35'4 6.4
2018-Apr-06 18:25N 36°48' E 030°39'3 7.1
2018-Apr-06 17:56N 36°47' E 030°43'3 7.0
2018-Apr-06 17:30N 36°46' E 030°47'2 4.5
2018-Apr-06 17:00N 36°46' E 030°50'1 1.6
2018-Apr-06 16:20N 36°46' E 030°51'1 2.5
2018-Apr-06 15:51N 36°46' E 030°53'1 2.5
2018-Apr-06 15:29N 36°46' E 030°54'1 2.5
2018-Apr-06 14:59N 36°46' E 030°55'1 2.5
2018-Apr-06 14:29N 36°46' E 030°57'1 2.5
2018-Apr-06 14:00N 36°46' E 030°58'2 2.5
2018-Apr-06 13:17N 36°46' E 031°01'10 1.9
2018-Apr-06 08:10N 36°49' E 030°49'1 2.7
2018-Apr-06 07:59N 36°49' E 030°50'1 2.7
2018-Apr-06 07:28N 36°48' E 030°51'1 2.7
2018-Apr-06 07:00N 36°48' E 030°53'7 0.6
2018-Apr-05 18:07N 36°48' E 031°02'4 2.2
2018-Apr-05 16:08N 36°48' E 030°57'0 2.6
2018-Apr-05 16:00N 36°48' E 030°56'1 2.6
2018-Apr-05 15:30N 36°48' E 030°54'1 2.6
2018-Apr-05 15:00N 36°48' E 030°53'1 2.7
2018-Apr-05 14:30N 36°48' E 030°51'1 2.6
2018-Apr-05 13:59N 36°49' E 030°50'1 2.4
2018-Apr-05 13:30N 36°49' E 030°48'1 1.6
2018-Apr-05 13:00N 36°49' E 030°49'1 2.5
2018-Apr-05 12:30N 36°48' E 030°51'1 2.6
2018-Apr-05 12:00N 36°48' E 030°52'1 2.5
2018-Apr-05 11:30N 36°48' E 030°54'1 2.6
2018-Apr-05 11:00N 36°48' E 030°55'1 2.5
2018-Apr-05 10:30N 36°48' E 030°57'1 2.6
2018-Apr-05 10:00N 36°48' E 030°59'1 2.6
2018-Apr-05 09:28N 36°47' E 031°00'6 3.1
2018-Apr-05 07:27N 36°49' E 030°52'1 1.6
2018-Apr-05 07:00N 36°48' E 030°53'7 1.0
2018-Apr-05 00:10N 36°49' E 031°02'10 2.0
2018-Apr-04 19:18N 36°49' E 030°50'1 2.9
2018-Apr-04 18:53N 36°48' E 030°48'1 1.5
2018-Apr-04 18:30N 36°49' E 030°49'1 2.5
2018-Apr-04 18:00N 36°49' E 030°50'1 2.6
2018-Apr-04 17:30N 36°49' E 030°52'1 2.6
2018-Apr-04 17:00N 36°49' E 030°54'2 2.6
2018-Apr-04 16:25N 36°49' E 030°55'1 2.6
2018-Apr-04 15:59N 36°49' E 030°57'1 2.6
2018-Apr-04 15:28N 36°49' E 030°59'1 2.6
2018-Apr-04 15:00N 36°49' E 031°00'2 1.2
2018-Apr-04 13:30N 36°48' E 031°02'1 2.2
2018-Apr-04 13:00N 36°48' E 031°03'1 2.6
2018-Apr-04 12:29N 36°48' E 031°05'1 2.7
2018-Apr-04 12:00N 36°47' E 031°07'14 1.0
2018-Apr-03 22:08N 36°49' E 030°50'1 4.0
2018-Apr-03 21:58N 36°49' E 030°51'1 1.6
2018-Apr-03 21:28N 36°49' E 030°51'1 2.6
2018-Apr-03 21:00N 36°49' E 030°53'  

Dump ship's entire track history